createdAt,value
2016-03-12T00:00:46.501Z,972.27
2016-03-12T00:01:46.503Z,972.26
2016-03-12T00:02:46.490Z,972.28
2016-03-12T00:03:46.493Z,972.3
2016-03-12T00:04:46.495Z,972.27
2016-03-12T00:05:46.498Z,972.28
2016-03-12T00:06:46.588Z,972.26
2016-03-12T00:07:46.490Z,972.28
2016-03-12T00:08:46.492Z,972.29
2016-03-12T00:09:46.495Z,972.28
2016-03-12T00:10:46.497Z,972.23
2016-03-12T00:11:46.485Z,972.22
2016-03-12T00:12:46.487Z,972.35
2016-03-12T00:13:46.490Z,972.23
2016-03-12T00:14:46.492Z,972.27
2016-03-12T00:15:46.479Z,972.34
2016-03-12T00:16:46.481Z,972.28
2016-03-12T00:17:46.485Z,972.39
2016-03-12T00:18:46.487Z,972.28
2016-03-12T00:19:46.490Z,972.22
2016-03-12T00:20:46.477Z,972.23
2016-03-12T00:21:46.480Z,972.25
2016-03-12T00:22:46.483Z,972.23
2016-03-12T00:23:46.485Z,972.29
2016-03-12T00:24:46.472Z,972.23
2016-03-12T00:25:46.475Z,972.34
2016-03-12T00:26:46.478Z,972.25
2016-03-12T00:27:46.480Z,972.21
2016-03-12T00:28:46.483Z,972.17
2016-03-12T00:29:46.469Z,972.15
2016-03-12T00:30:46.473Z,972.13
2016-03-12T00:31:46.475Z,972.33
2016-03-12T00:32:46.478Z,972.23
2016-03-12T00:33:46.480Z,972.22
2016-03-12T00:34:46.468Z,972.23
2016-03-12T00:35:46.471Z,972.3
2016-03-12T00:36:46.474Z,972.28
2016-03-12T00:37:46.476Z,972.23
2016-03-12T00:38:46.463Z,972.2
2016-03-12T00:39:46.466Z,972.34
2016-03-12T00:40:46.468Z,972.2
2016-03-12T00:41:46.471Z,972.3
2016-03-12T00:42:46.458Z,972.31
2016-03-12T00:43:46.461Z,972.17
2016-03-12T00:44:46.464Z,972.29
2016-03-12T00:45:46.467Z,972.23
2016-03-12T00:46:46.469Z,972.26
2016-03-12T00:47:46.456Z,972.24
2016-03-12T00:48:46.458Z,972.27
2016-03-12T00:49:46.462Z,972.22
2016-03-12T00:50:46.448Z,972.22
2016-03-12T00:51:46.467Z,972.2
2016-03-12T00:52:46.454Z,972.21
2016-03-12T00:53:46.457Z,972.2
2016-03-12T00:54:46.459Z,972.24
2016-03-12T00:55:46.447Z,972.24
2016-03-12T00:56:46.449Z,972.28
2016-03-12T00:57:46.452Z,972.33
2016-03-12T00:58:46.455Z,972.26
2016-03-12T00:59:46.441Z,972.34
2016-03-12T01:00:46.444Z,972.31
2016-03-12T01:01:46.447Z,972.24
2016-03-12T01:02:46.449Z,972.27
2016-03-12T01:03:46.452Z,972.25
2016-03-12T01:04:46.455Z,972.31
2016-03-12T01:05:46.441Z,972.3
2016-03-12T01:06:46.445Z,972.32
2016-03-12T01:07:46.479Z,972.33
2016-03-12T01:08:46.435Z,972.27
2016-03-12T01:09:46.437Z,972.22
2016-03-12T01:10:46.440Z,972.28
2016-03-12T01:11:46.443Z,972.34
2016-03-12T01:12:46.430Z,972.3
2016-03-12T01:13:46.432Z,972.34
2016-03-12T01:14:46.435Z,972.28
2016-03-12T01:15:46.437Z,972.26
2016-03-12T01:16:46.440Z,972.19
2016-03-12T01:17:46.428Z,972.25
2016-03-12T01:18:46.431Z,972.25
2016-03-12T01:19:46.433Z,972.26
2016-03-12T01:20:46.436Z,972.21
2016-03-12T01:21:46.439Z,972.24
2016-03-12T01:22:46.425Z,972.15
2016-03-12T01:23:46.428Z,972.23
2016-03-12T01:24:46.430Z,972.09
2016-03-12T01:25:46.433Z,972.16
2016-03-12T01:26:46.436Z,972.15
2016-03-12T01:27:46.423Z,972.15
2016-03-12T01:28:46.425Z,972.19
2016-03-12T01:29:46.428Z,972.16
2016-03-12T01:30:46.416Z,972.21
2016-03-12T01:31:46.419Z,972.15
2016-03-12T01:32:46.421Z,972.16
2016-03-12T01:33:46.424Z,972.13
2016-03-12T01:34:46.427Z,972.13
2016-03-12T01:35:46.413Z,972.14
2016-03-12T01:36:46.416Z,972.17
2016-03-12T01:37:46.418Z,972.09
2016-03-12T01:38:46.421Z,972.15
2016-03-12T01:39:46.424Z,972.15
2016-03-12T01:40:46.411Z,972.09
2016-03-12T01:41:46.413Z,972.08
2016-03-12T01:42:46.416Z,972.08
2016-03-12T01:43:46.418Z,972.04
2016-03-12T01:44:46.406Z,972.11
2016-03-12T01:45:46.409Z,972.03
2016-03-12T01:46:46.412Z,972.04
2016-03-12T01:47:46.414Z,972.08
2016-03-12T01:48:46.418Z,972.05
2016-03-12T01:49:46.404Z,972.03
2016-03-12T01:50:46.407Z,972.02
2016-03-12T01:51:46.409Z,971.98
2016-03-12T01:52:46.397Z,972.05
2016-03-12T01:53:46.400Z,972.09
2016-03-12T01:54:46.403Z,972.12
2016-03-12T01:55:46.405Z,972.01
2016-03-12T01:56:46.391Z,972
2016-03-12T01:57:46.394Z,971.95
2016-03-12T01:58:46.397Z,972.02
2016-03-12T01:59:46.400Z,971.98
2016-03-12T02:00:46.402Z,971.99
2016-03-12T02:01:46.389Z,972
2016-03-12T02:02:46.392Z,972.02
2016-03-12T02:03:46.395Z,972.08
2016-03-12T02:04:46.397Z,972.05
2016-03-12T02:05:46.385Z,972.04
2016-03-12T02:06:46.387Z,972.07
2016-03-12T02:07:46.391Z,972.03
2016-03-12T02:08:46.393Z,971.97
2016-03-12T02:09:46.380Z,971.9
2016-03-12T02:10:46.382Z,971.94
2016-03-12T02:11:46.385Z,972.02
2016-03-12T02:12:46.388Z,971.98
2016-03-12T02:13:46.391Z,971.93
2016-03-12T02:14:46.377Z,971.96
2016-03-12T02:15:46.380Z,971.95
2016-03-12T02:16:46.383Z,971.89
2016-03-12T02:17:46.386Z,971.96
2016-03-12T02:18:46.373Z,971.96
2016-03-12T02:19:46.375Z,971.95
2016-03-12T02:20:46.378Z,971.93
2016-03-12T02:21:46.396Z,971.92
2016-03-12T02:22:46.384Z,971.93
2016-03-12T02:23:46.370Z,971.96
2016-03-12T02:24:46.373Z,971.92
2016-03-12T02:25:46.375Z,971.97
2016-03-12T02:26:46.363Z,971.87
2016-03-12T02:27:46.366Z,971.89
2016-03-12T02:28:46.368Z,971.93
2016-03-12T02:29:46.372Z,971.9
2016-03-12T02:30:46.358Z,971.97
2016-03-12T02:31:46.361Z,971.86
2016-03-12T02:32:46.363Z,971.92
2016-03-12T02:33:46.350Z,971.92
2016-03-12T02:34:46.368Z,971.91
2016-03-12T02:35:46.356Z,972.03
2016-03-12T02:36:46.358Z,971.93
2016-03-12T02:37:46.361Z,971.95
2016-03-12T02:38:46.348Z,971.94
2016-03-12T02:39:46.351Z,971.94
2016-03-12T02:40:46.354Z,971.87
2016-03-12T02:41:46.356Z,971.96
2016-03-12T02:42:46.359Z,971.99
2016-03-12T02:43:46.346Z,971.85
2016-03-12T02:44:46.349Z,971.97
2016-03-12T02:45:46.351Z,971.98
2016-03-12T02:46:46.338Z,971.92
2016-03-12T02:47:46.340Z,971.96
2016-03-12T02:48:46.344Z,971.95
2016-03-12T02:49:46.346Z,971.95
2016-03-12T02:50:46.349Z,972.03
2016-03-12T02:51:46.336Z,971.96
2016-03-12T02:52:46.339Z,972.03
2016-03-12T02:53:46.341Z,971.92
2016-03-12T02:54:46.345Z,971.97
2016-03-12T02:55:46.331Z,972
2016-03-12T02:56:46.334Z,971.97
2016-03-12T02:57:46.337Z,971.95
2016-03-12T02:58:46.340Z,971.96
2016-03-12T02:59:46.342Z,971.97
2016-03-12T03:00:46.329Z,971.93
2016-03-12T03:01:46.332Z,971.92
2016-03-12T03:02:46.335Z,971.93
2016-03-12T03:03:46.322Z,971.93
2016-03-12T03:04:46.324Z,971.95
2016-03-12T03:05:46.327Z,971.93
2016-03-12T03:06:46.330Z,971.94
2016-03-12T03:07:46.317Z,971.92
2016-03-12T03:08:46.319Z,971.92
2016-03-12T03:09:46.322Z,972.01
2016-03-12T03:10:46.325Z,972.03
2016-03-12T03:11:46.313Z,972.03
2016-03-12T03:12:46.315Z,972.04
2016-03-12T03:13:46.317Z,972.01
2016-03-12T03:14:46.320Z,972.05
2016-03-12T03:15:46.307Z,972.05
2016-03-12T03:16:46.310Z,972.01
2016-03-12T03:17:46.312Z,972.12
2016-03-12T03:18:46.299Z,972.09
2016-03-12T03:19:46.301Z,972.09
2016-03-12T03:20:46.305Z,972.07
2016-03-12T03:21:46.307Z,972.1
2016-03-12T03:22:46.310Z,972.03
2016-03-12T03:23:46.298Z,972.04
2016-03-12T03:24:46.300Z,972.07
2016-03-12T03:25:46.303Z,972.13
2016-03-12T03:26:46.305Z,972.09
2016-03-12T03:27:46.308Z,972.04
2016-03-12T03:28:46.295Z,972.05
2016-03-12T03:29:46.298Z,972.09
2016-03-12T03:30:46.285Z,972.15
2016-03-12T03:31:46.288Z,972.1
2016-03-12T03:32:46.291Z,972.16
2016-03-12T03:33:46.294Z,972.06
2016-03-12T03:34:46.280Z,972.06
2016-03-12T03:35:46.283Z,972.07
2016-03-12T03:36:46.286Z,972.05
2016-03-12T03:37:46.288Z,972.05
2016-03-12T03:38:46.322Z,972.1
2016-03-12T03:39:46.277Z,972.03
2016-03-12T03:40:46.281Z,972.04
2016-03-12T03:41:46.283Z,972.02
2016-03-12T03:42:46.271Z,972.03
2016-03-12T03:43:46.273Z,972.04
2016-03-12T03:44:46.276Z,972.03
2016-03-12T03:45:46.279Z,972.03
2016-03-12T03:46:46.266Z,972.1
2016-03-12T03:47:46.268Z,972.04
2016-03-12T03:48:46.271Z,972.06
2016-03-12T03:49:46.258Z,972.09
2016-03-12T03:50:46.260Z,972.07
2016-03-12T03:51:46.262Z,972.11
2016-03-12T03:52:46.265Z,972.02
2016-03-12T03:53:46.268Z,972.06
2016-03-12T03:54:46.256Z,972.1
2016-03-12T03:55:46.258Z,972.08
2016-03-12T03:56:46.245Z,972.11
2016-03-12T03:57:46.248Z,972.14
2016-03-12T03:58:46.251Z,972.13
2016-03-12T03:59:46.253Z,972.12
2016-03-12T04:00:46.256Z,972.14
2016-03-12T04:01:46.244Z,972.11
2016-03-12T04:02:46.247Z,972.1
2016-03-12T04:03:46.249Z,972.18
2016-03-12T04:04:46.251Z,972.23
2016-03-12T04:05:46.239Z,972.18
2016-03-12T04:06:46.257Z,972.13
2016-03-12T04:07:46.244Z,972.14
2016-03-12T04:08:46.246Z,972.19
2016-03-12T04:09:46.233Z,972.14
2016-03-12T04:10:46.236Z,972.15
2016-03-12T04:11:46.239Z,972.12
2016-03-12T04:12:46.226Z,972.12
2016-03-12T04:13:46.229Z,972.11
2016-03-12T04:14:46.232Z,972.12
2016-03-12T04:15:46.234Z,972.18
2016-03-12T04:16:46.237Z,972.03
2016-03-12T04:17:46.223Z,972.09
2016-03-12T04:18:46.227Z,972.17
2016-03-12T04:19:46.213Z,972.1
2016-03-12T04:20:46.216Z,972.08
2016-03-12T04:21:46.218Z,972.12
2016-03-12T04:22:46.206Z,972.07
2016-03-12T04:23:46.224Z,972.1
2016-03-12T04:24:46.211Z,972.01
2016-03-12T04:25:46.215Z,972.06
2016-03-12T04:26:46.217Z,972.02
2016-03-12T04:27:46.204Z,972.05
2016-03-12T04:28:46.206Z,972.06
2016-03-12T04:29:46.209Z,972.07
2016-03-12T04:30:46.197Z,972.1
2016-03-12T04:31:46.200Z,972.07
2016-03-12T04:32:46.202Z,972.07
2016-03-12T04:33:46.188Z,972.02
2016-03-12T04:34:46.191Z,972.06
2016-03-12T04:35:46.194Z,972.04
2016-03-12T04:36:46.197Z,972.09
2016-03-12T04:37:46.183Z,972.05
2016-03-12T04:38:46.203Z,972.07
2016-03-12T04:39:46.189Z,972.06
2016-03-12T04:40:46.192Z,972.06
2016-03-12T04:41:46.194Z,972.07
2016-03-12T04:42:46.182Z,972.07
2016-03-12T04:43:46.185Z,972.07
2016-03-12T04:44:46.187Z,972.06
2016-03-12T04:45:46.174Z,972.11
2016-03-12T04:46:46.176Z,972.09
2016-03-12T04:47:46.180Z,972.12
2016-03-12T04:48:46.182Z,972.12
2016-03-12T04:49:46.169Z,972.09
2016-03-12T04:50:46.172Z,972.07
2016-03-12T04:51:46.175Z,972.14
2016-03-12T04:52:46.177Z,972.13
2016-03-12T04:53:46.164Z,972.17
2016-03-12T04:54:46.167Z,972.18
2016-03-12T04:55:46.170Z,972.14
2016-03-12T04:56:46.157Z,972.22
2016-03-12T04:57:46.160Z,972.25
2016-03-12T04:58:46.162Z,972.18
2016-03-12T04:59:46.165Z,972.17
2016-03-12T05:00:46.153Z,972.19
2016-03-12T05:01:46.155Z,972.18
2016-03-12T05:02:46.158Z,972.23
2016-03-12T05:03:46.145Z,972.21
2016-03-12T05:04:46.147Z,972.21
2016-03-12T05:05:46.150Z,972.22
2016-03-12T05:06:46.171Z,972.22
2016-03-12T05:07:46.141Z,972.24
2016-03-12T05:08:46.144Z,972.19
2016-03-12T05:09:46.146Z,972.15
2016-03-12T05:10:46.149Z,972.18
2016-03-12T05:11:46.136Z,972.15
2016-03-12T05:12:46.140Z,972.17
2016-03-12T05:13:46.126Z,972.1
2016-03-12T05:14:46.129Z,972.17
2016-03-12T05:15:46.131Z,972.17
2016-03-12T05:16:46.134Z,972.14
2016-03-12T05:17:46.131Z,972.19
2016-03-12T05:18:46.103Z,972.2
2016-03-12T05:19:46.093Z,972.17
2016-03-12T05:20:46.082Z,972.21
2016-03-12T05:21:46.056Z,972.21
2016-03-12T05:22:46.050Z,972.24
2016-03-12T05:23:46.048Z,972.2
2016-03-12T05:24:46.047Z,972.2
2016-03-12T05:25:46.028Z,972.21
2016-03-12T05:26:46.026Z,972.28
2016-03-12T05:27:46.026Z,972.19
2016-03-12T05:28:46.027Z,972.25
2016-03-12T05:29:46.012Z,972.19
2016-03-12T05:30:46.013Z,972.21
2016-03-12T05:31:46.014Z,972.2
2016-03-12T05:32:45.999Z,972.21
2016-03-12T05:33:46.001Z,972.2
2016-03-12T05:34:46.003Z,972.22
2016-03-12T05:35:46.004Z,972.22
2016-03-12T05:36:45.990Z,972.27
2016-03-12T05:37:45.993Z,972.22
2016-03-12T05:38:45.996Z,972.24
2016-03-12T05:39:45.983Z,972.22
2016-03-12T05:40:45.987Z,972.25
2016-03-12T05:41:45.989Z,972.25
2016-03-12T05:42:45.992Z,972.31
2016-03-12T05:43:45.978Z,972.31
2016-03-12T05:44:45.981Z,972.31
2016-03-12T05:45:45.984Z,972.28
2016-03-12T05:46:45.986Z,972.28
2016-03-12T05:47:45.972Z,972.3
2016-03-12T05:48:45.975Z,972.33
2016-03-12T05:49:45.978Z,972.3
2016-03-12T05:50:45.966Z,972.26
2016-03-12T05:51:45.968Z,972.3
2016-03-12T05:52:45.971Z,972.3
2016-03-12T05:53:45.974Z,972.37
2016-03-12T05:54:45.977Z,972.35
2016-03-12T05:55:45.963Z,972.36
2016-03-12T05:56:45.966Z,972.38
2016-03-12T05:57:45.969Z,972.35
2016-03-12T05:58:45.972Z,972.4
2016-03-12T05:59:45.959Z,972.42
2016-03-12T06:00:45.976Z,972.35
2016-03-12T06:01:45.965Z,972.39
2016-03-12T06:02:45.951Z,972.33
2016-03-12T06:03:45.954Z,972.4
2016-03-12T06:04:45.957Z,972.37
2016-03-12T06:05:45.944Z,972.38
2016-03-12T06:06:45.946Z,972.34
2016-03-12T06:07:45.949Z,972.46
2016-03-12T06:08:45.951Z,972.48
2016-03-12T06:09:45.954Z,972.4
2016-03-12T06:10:45.942Z,972.46
2016-03-12T06:11:45.944Z,972.38
2016-03-12T06:12:45.947Z,972.41
2016-03-12T06:13:45.933Z,972.5
2016-03-12T06:14:45.937Z,972.45
2016-03-12T06:15:45.939Z,972.46
2016-03-12T06:16:45.942Z,972.5
2016-03-12T06:17:45.945Z,972.49
2016-03-12T06:18:45.931Z,972.52
2016-03-12T06:19:45.934Z,972.51
2016-03-12T06:20:45.936Z,972.5
2016-03-12T06:21:45.939Z,972.53
2016-03-12T06:22:45.927Z,972.51
2016-03-12T06:23:45.930Z,972.56
2016-03-12T06:24:45.932Z,972.56
2016-03-12T06:25:45.919Z,972.54
2016-03-12T06:26:45.922Z,972.53
2016-03-12T06:27:45.925Z,972.6
2016-03-12T06:28:45.927Z,972.54
2016-03-12T06:29:45.915Z,972.6
2016-03-12T06:30:45.918Z,972.59
2016-03-12T06:31:45.920Z,972.61
2016-03-12T06:32:45.907Z,972.61
2016-03-12T06:33:45.909Z,972.57
2016-03-12T06:34:45.913Z,972.62
2016-03-12T06:35:45.915Z,972.64
2016-03-12T06:36:45.918Z,972.68
2016-03-12T06:37:45.904Z,972.63
2016-03-12T06:38:45.907Z,972.65
2016-03-12T06:39:45.910Z,972.64
2016-03-12T06:40:45.912Z,972.7
2016-03-12T06:41:45.900Z,972.74
2016-03-12T06:42:45.903Z,972.72
2016-03-12T06:43:45.906Z,972.69
2016-03-12T06:44:45.908Z,972.76
2016-03-12T06:45:45.895Z,972.67
2016-03-12T06:46:45.898Z,972.76
2016-03-12T06:47:45.901Z,972.75
2016-03-12T06:48:45.903Z,972.71
2016-03-12T06:49:45.889Z,972.77
2016-03-12T06:50:45.892Z,972.7
2016-03-12T06:51:45.895Z,972.84
2016-03-12T06:52:45.898Z,972.83
2016-03-12T06:53:45.885Z,972.81
2016-03-12T06:54:45.888Z,972.75
2016-03-12T06:55:45.891Z,972.73
2016-03-12T06:56:45.877Z,972.84
2016-03-12T06:57:45.880Z,972.86
2016-03-12T06:58:45.882Z,972.9
2016-03-12T06:59:45.886Z,972.91
2016-03-12T07:00:45.873Z,972.86
2016-03-12T07:01:45.876Z,972.93
2016-03-12T07:02:45.878Z,972.9
2016-03-12T07:03:45.865Z,972.85
2016-03-12T07:04:45.884Z,972.85
2016-03-12T07:05:45.870Z,972.84
2016-03-12T07:06:45.874Z,972.93
2016-03-12T07:07:45.876Z,972.87
2016-03-12T07:08:45.863Z,972.92
2016-03-12T07:09:45.865Z,972.89
2016-03-12T07:10:45.868Z,972.97
2016-03-12T07:11:45.871Z,972.98
2016-03-12T07:12:45.873Z,972.96
2016-03-12T07:13:45.861Z,972.98
2016-03-12T07:14:45.863Z,973.04
2016-03-12T07:15:45.867Z,973.05
2016-03-12T07:16:45.853Z,973.02
2016-03-12T07:17:45.856Z,973.05
2016-03-12T07:18:45.859Z,973.03
2016-03-12T07:19:45.862Z,973.11
2016-03-12T07:20:45.880Z,973.09
2016-03-12T07:21:45.850Z,973.06
2016-03-12T07:22:45.869Z,973.06
2016-03-12T07:23:45.856Z,973.12
2016-03-12T07:24:45.859Z,973.12
2016-03-12T07:25:45.846Z,973.18
2016-03-12T07:26:45.849Z,973.12
2016-03-12T07:27:45.852Z,973.18
2016-03-12T07:28:45.855Z,973.15
2016-03-12T07:29:45.841Z,973.23
2016-03-12T07:30:45.844Z,973.19
2016-03-12T07:31:45.847Z,973.16
2016-03-12T07:32:45.849Z,973.27
2016-03-12T07:33:45.837Z,973.2
2016-03-12T07:34:45.839Z,973.19
2016-03-12T07:35:45.843Z,973.23
2016-03-12T07:36:45.829Z,973.26
2016-03-12T07:37:45.894Z,973.22
2016-03-12T07:38:45.834Z,973.19
2016-03-12T07:39:45.837Z,973.21
2016-03-12T07:40:45.840Z,973.2
2016-03-12T07:41:45.826Z,973.2
2016-03-12T07:42:45.830Z,973.24
2016-03-12T07:43:45.832Z,973.18
2016-03-12T07:44:45.835Z,973.18
2016-03-12T07:45:45.822Z,973.25
2016-03-12T07:46:45.825Z,973.28
2016-03-12T07:47:45.828Z,973.3
2016-03-12T07:48:45.830Z,973.3
2016-03-12T07:49:45.817Z,973.28
2016-03-12T07:50:45.835Z,973.28
2016-03-12T07:51:45.822Z,973.28
2016-03-12T07:52:45.825Z,973.31
2016-03-12T07:53:45.811Z,973.24
2016-03-12T07:54:45.815Z,973.31
2016-03-12T07:55:45.817Z,973.24
2016-03-12T07:56:45.820Z,973.3
2016-03-12T07:57:45.822Z,973.28
2016-03-12T07:58:45.810Z,973.31
2016-03-12T07:59:45.813Z,973.33
2016-03-12T08:00:45.815Z,973.36
2016-03-12T08:01:45.818Z,973.23
2016-03-12T08:02:45.804Z,973.37
2016-03-12T08:03:45.808Z,973.34
2016-03-12T08:04:45.810Z,973.34
2016-03-12T08:05:45.813Z,973.29
2016-03-12T08:06:45.801Z,973.3
2016-03-12T08:07:45.819Z,973.28
2016-03-12T08:08:45.806Z,973.35
2016-03-12T08:09:45.824Z,973.31
2016-03-12T08:10:45.811Z,973.3
2016-03-12T08:11:45.814Z,973.27
2016-03-12T08:12:45.801Z,973.28
2016-03-12T08:13:45.804Z,973.29
2016-03-12T08:14:45.806Z,973.26
2016-03-12T08:15:45.825Z,973.28
2016-03-12T08:16:45.796Z,973.36
2016-03-12T08:17:45.798Z,973.3
2016-03-12T08:18:45.801Z,973.31
2016-03-12T08:19:45.804Z,973.37
2016-03-12T08:20:45.791Z,973.31
2016-03-12T08:21:45.794Z,973.34
2016-03-12T08:22:45.797Z,973.41
2016-03-12T08:23:45.799Z,973.44
2016-03-12T08:24:45.802Z,973.43
2016-03-12T08:25:45.789Z,973.4
2016-03-12T08:26:45.791Z,973.44
2016-03-12T08:27:45.794Z,973.42
2016-03-12T08:28:45.797Z,973.41
2016-03-12T08:29:45.783Z,973.42
2016-03-12T08:30:45.787Z,973.42
2016-03-12T08:31:45.789Z,973.36
2016-03-12T08:32:45.792Z,973.38
2016-03-12T08:33:45.794Z,973.44
2016-03-12T08:34:45.782Z,973.41
2016-03-12T08:35:45.785Z,973.42
2016-03-12T08:36:45.787Z,973.42
2016-03-12T08:37:45.790Z,973.42
2016-03-12T08:38:45.793Z,973.48
2016-03-12T08:39:45.780Z,973.46
2016-03-12T08:40:45.782Z,973.48
2016-03-12T08:41:45.785Z,973.46
2016-03-12T08:42:45.788Z,973.48
2016-03-12T08:43:45.775Z,973.52
2016-03-12T08:44:45.777Z,973.45
2016-03-12T08:45:45.780Z,973.51
2016-03-12T08:46:45.783Z,973.48
2016-03-12T08:47:45.786Z,973.51
2016-03-12T08:48:45.788Z,973.48
2016-03-12T08:49:45.822Z,973.56
2016-03-12T08:50:45.778Z,973.54
2016-03-12T08:51:45.781Z,973.55
2016-03-12T08:52:45.783Z,973.48
2016-03-12T08:53:45.786Z,973.53
2016-03-12T08:54:45.773Z,973.54
2016-03-12T08:55:45.775Z,973.52
2016-03-12T08:56:45.778Z,973.59
2016-03-12T08:57:45.780Z,973.57
2016-03-12T08:58:45.784Z,973.55
2016-03-12T08:59:45.771Z,973.5
2016-03-12T09:00:45.774Z,973.49
2016-03-12T09:01:45.776Z,973.48
2016-03-12T09:02:45.779Z,973.53
2016-03-12T09:03:45.797Z,973.52
2016-03-12T09:04:45.768Z,973.52
2016-03-12T09:05:45.772Z,973.49
2016-03-12T09:06:45.774Z,973.5
2016-03-12T09:07:45.777Z,973.51
2016-03-12T09:08:45.779Z,973.48
2016-03-12T09:09:45.782Z,973.52
2016-03-12T09:10:45.785Z,973.57
2016-03-12T09:11:45.771Z,973.5
2016-03-12T09:12:45.774Z,973.57
2016-03-12T09:13:45.776Z,973.57
2016-03-12T09:14:45.780Z,973.54
2016-03-12T09:15:45.782Z,973.53
2016-03-12T09:16:45.770Z,973.58
2016-03-12T09:17:45.773Z,973.54
2016-03-12T09:18:45.775Z,973.53
2016-03-12T09:19:45.778Z,973.47
2016-03-12T09:20:45.781Z,973.5
2016-03-12T09:21:45.784Z,973.47
2016-03-12T09:22:45.770Z,973.5
2016-03-12T09:23:45.773Z,973.47
2016-03-12T09:24:45.775Z,973.54
2016-03-12T09:25:45.778Z,973.58
2016-03-12T09:26:45.781Z,973.54
2016-03-12T09:27:45.768Z,973.45
2016-03-12T09:28:45.772Z,973.59
2016-03-12T09:29:45.774Z,973.6
2016-03-12T09:30:45.777Z,973.57
2016-03-12T09:31:45.779Z,973.5
2016-03-12T09:32:45.782Z,973.59
2016-03-12T09:33:45.785Z,973.58
2016-03-12T09:34:45.771Z,973.51
2016-03-12T09:35:45.773Z,973.52
2016-03-12T09:36:45.776Z,973.5
2016-03-12T09:37:45.779Z,973.48
2016-03-12T09:38:45.782Z,973.51
2016-03-12T09:39:45.768Z,973.51
2016-03-12T09:40:45.772Z,973.47
2016-03-12T09:41:45.774Z,973.48
2016-03-12T09:42:45.776Z,973.5
2016-03-12T09:43:45.779Z,973.53
2016-03-12T09:44:45.782Z,973.64
2016-03-12T09:45:45.785Z,973.5
2016-03-12T09:46:45.787Z,973.57
2016-03-12T09:47:45.775Z,973.54
2016-03-12T09:48:45.778Z,973.58
2016-03-12T09:49:45.781Z,973.57
2016-03-12T09:50:45.783Z,973.55
2016-03-12T09:51:45.786Z,973.59
2016-03-12T09:52:45.773Z,973.6
2016-03-12T09:53:45.775Z,973.65
2016-03-12T09:54:45.778Z,973.57
2016-03-12T09:55:45.781Z,973.78
2016-03-12T09:56:45.783Z,973.6
2016-03-12T09:57:45.786Z,973.56
2016-03-12T09:58:45.772Z,973.57
2016-03-12T09:59:45.775Z,973.53
2016-03-12T10:00:45.778Z,973.6
2016-03-12T10:01:45.781Z,973.56
2016-03-12T10:02:45.783Z,973.64
2016-03-12T10:03:45.786Z,973.56
2016-03-12T10:04:45.789Z,973.6
2016-03-12T10:05:45.791Z,973.56
2016-03-12T10:06:45.873Z,973.59
2016-03-12T10:07:45.776Z,973.5
2016-03-12T10:08:45.779Z,973.63
2016-03-12T10:09:45.781Z,973.61
2016-03-12T10:10:45.784Z,973.61
2016-03-12T10:11:45.787Z,973.61
2016-03-12T10:12:45.789Z,973.62
2016-03-12T10:13:45.776Z,973.66
2016-03-12T10:14:45.779Z,973.71
2016-03-12T10:15:45.782Z,973.69
2016-03-12T10:16:45.784Z,973.71
2016-03-12T10:17:45.787Z,973.65
2016-03-12T10:18:45.790Z,973.66
2016-03-12T10:19:45.792Z,973.66
2016-03-12T10:20:45.780Z,973.69
2016-03-12T10:21:45.783Z,973.66
2016-03-12T10:22:45.786Z,973.67
2016-03-12T10:23:45.788Z,973.69
2016-03-12T10:24:45.790Z,973.68
2016-03-12T10:25:45.793Z,973.72
2016-03-12T10:26:45.796Z,973.72
2016-03-12T10:27:45.799Z,973.68
2016-03-12T10:28:45.801Z,973.66
2016-03-12T10:29:45.789Z,973.65
2016-03-12T10:30:45.791Z,973.7
2016-03-12T10:31:45.793Z,973.63
2016-03-12T10:32:45.796Z,973.7
2016-03-12T10:33:45.799Z,973.71
2016-03-12T10:34:45.801Z,973.75
2016-03-12T10:35:45.804Z,973.71
2016-03-12T10:36:45.790Z,973.65
2016-03-12T10:37:45.789Z,973.67
2016-03-12T10:38:45.791Z,973.72
2016-03-12T10:39:45.794Z,973.65
2016-03-12T10:40:45.796Z,973.69
2016-03-12T10:41:45.800Z,973.7
2016-03-12T10:42:45.802Z,973.7
2016-03-12T10:43:45.805Z,973.69
2016-03-12T10:44:45.808Z,973.72
2016-03-12T10:45:45.810Z,973.72
2016-03-12T10:46:45.796Z,973.76
2016-03-12T10:47:45.816Z,973.71
2016-03-12T10:48:45.802Z,973.73
2016-03-12T10:49:45.821Z,973.72
2016-03-12T10:50:45.808Z,973.76
2016-03-12T10:51:45.810Z,973.73
2016-03-12T10:52:45.813Z,973.7
2016-03-12T10:53:45.815Z,973.77
2016-03-12T10:54:45.819Z,973.74
2016-03-12T10:55:45.805Z,973.73
2016-03-12T10:56:45.808Z,973.73
2016-03-12T10:57:45.810Z,973.71
2016-03-12T10:58:45.813Z,973.67
2016-03-12T10:59:45.816Z,973.64
2016-03-12T11:00:45.818Z,973.75
2016-03-12T11:01:45.821Z,973.72
2016-03-12T11:02:45.823Z,973.83
2016-03-12T11:03:45.812Z,973.78
2016-03-12T11:04:45.814Z,973.72
2016-03-12T11:05:45.817Z,973.75
2016-03-12T11:06:45.820Z,973.82
2016-03-12T11:07:45.822Z,973.7
2016-03-12T11:08:45.825Z,973.72
2016-03-12T11:09:45.827Z,973.77
2016-03-12T11:10:45.831Z,973.79
2016-03-12T11:11:45.833Z,973.69
2016-03-12T11:12:45.836Z,973.75
2016-03-12T11:13:45.822Z,973.72
2016-03-12T11:14:45.825Z,973.73
2016-03-12T11:15:45.828Z,973.74
2016-03-12T11:16:45.830Z,973.74
2016-03-12T11:17:45.834Z,973.73
2016-03-12T11:18:45.836Z,973.59
2016-03-12T11:19:45.838Z,973.71
2016-03-12T11:20:45.841Z,973.71
2016-03-12T11:21:45.850Z,973.65
2016-03-12T11:22:45.877Z,973.66
2016-03-12T11:23:45.879Z,973.7
2016-03-12T11:24:45.868Z,973.65
2016-03-12T11:25:45.842Z,973.59
2016-03-12T11:26:45.844Z,973.66
2016-03-12T11:27:45.847Z,973.62
2016-03-12T11:28:45.850Z,973.73
2016-03-12T11:29:45.853Z,973.65
2016-03-12T11:30:45.855Z,973.57
2016-03-12T11:31:45.857Z,973.59
2016-03-12T11:32:45.861Z,973.6
2016-03-12T11:33:45.863Z,973.76
2016-03-12T11:34:45.851Z,973.69
2016-03-12T11:35:45.869Z,973.65
2016-03-12T11:36:45.856Z,973.59
2016-03-12T11:37:45.859Z,973.65
2016-03-12T11:38:45.876Z,973.62
2016-03-12T11:39:45.865Z,973.62
2016-03-12T11:40:45.867Z,973.64
2016-03-12T11:41:45.870Z,973.55
2016-03-12T11:42:45.872Z,973.61
2016-03-12T11:43:45.875Z,973.63
2016-03-12T11:44:45.878Z,973.56
2016-03-12T11:45:45.880Z,973.53
2016-03-12T11:46:45.884Z,973.61
2016-03-12T11:47:45.886Z,973.56
2016-03-12T11:48:45.889Z,973.48
2016-03-12T11:49:45.875Z,973.62
2016-03-12T11:50:45.878Z,973.5
2016-03-12T11:51:45.881Z,973.47
2016-03-12T11:52:45.883Z,973.44
2016-03-12T11:53:45.886Z,973.51
2016-03-12T11:54:45.889Z,973.46
2016-03-12T11:55:45.891Z,973.51
2016-03-12T11:56:45.894Z,973.51
2016-03-12T11:57:45.897Z,973.59
2016-03-12T11:58:45.900Z,973.46
2016-03-12T11:59:45.902Z,973.41
2016-03-12T12:00:45.905Z,973.47
2016-03-12T12:01:45.892Z,973.43
2016-03-12T12:02:45.911Z,973.44
2016-03-12T12:03:45.897Z,973.46
2016-03-12T12:04:45.899Z,973.46
2016-03-12T12:05:45.902Z,973.43
2016-03-12T12:06:45.905Z,973.38
2016-03-12T12:07:45.907Z,973.46
2016-03-12T12:08:45.943Z,973.45
2016-03-12T12:09:45.913Z,973.41
2016-03-12T12:10:45.916Z,973.49
2016-03-12T12:11:45.918Z,973.4
2016-03-12T12:12:45.921Z,973.38
2016-03-12T12:13:45.924Z,973.44
2016-03-12T12:14:45.926Z,973.47
2016-03-12T12:15:45.929Z,973.4
2016-03-12T12:16:45.932Z,973.47
2016-03-12T12:17:45.934Z,973.46
2016-03-12T12:18:45.922Z,973.4
2016-03-12T12:19:45.940Z,973.42
2016-03-12T12:20:45.928Z,973.36
2016-03-12T12:21:45.931Z,973.39
2016-03-12T12:22:45.933Z,973.36
2016-03-12T12:23:45.936Z,973.42
2016-03-12T12:24:45.939Z,973.29
2016-03-12T12:25:45.941Z,973.26
2016-03-12T12:26:45.943Z,973.28
2016-03-12T12:27:45.947Z,973.32
2016-03-12T12:28:45.949Z,973.4
2016-03-12T12:29:45.952Z,973.29
2016-03-12T12:30:45.955Z,973.3
2016-03-12T12:31:45.957Z,973.33